sensor_id;sensor_type;location;lat;lon;timestamp;pressure;altitude;pressure_sealevel;temperature;humidity
11936;BME280;6027;48.576;9.180;2023-03-26T00:01:41;96405.09;;;7.32;100.00
11936;BME280;6027;48.576;9.180;2023-03-26T00:04:10;96416.66;;;7.31;100.00
11936;BME280;6027;48.576;9.180;2023-03-26T00:06:37;96395.09;;;7.27;100.00
11936;BME280;6027;48.576;9.180;2023-03-26T00:09:06;96424.66;;;7.37;100.00
11936;BME280;6027;48.576;9.180;2023-03-26T00:11:32;96428.25;;;7.44;100.00
11936;BME280;6027;48.576;9.180;2023-03-26T00:13:57;96417.91;;;7.35;100.00
11936;BME280;6027;48.576;9.180;2023-03-26T00:16:25;96426.16;;;7.32;100.00
11936;BME280;6027;48.576;9.180;2023-03-26T00:18:52;96433.59;;;7.28;100.00
11936;BME280;6027;48.576;9.180;2023-03-26T00:21:20;96406.72;;;7.10;100.00
11936;BME280;6027;48.576;9.180;2023-03-26T00:23:46;96436.06;;;7.30;100.00
11936;BME280;6027;48.576;9.180;2023-03-26T00:26:14;96434.38;;;7.06;100.00
11936;BME280;6027;48.576;9.180;2023-03-26T00:28:41;96417.50;;;6.76;100.00
11936;BME280;6027;48.576;9.180;2023-03-26T00:31:09;96430.50;;;6.85;100.00
11936;BME280;6027;48.576;9.180;2023-03-26T00:33:35;96435.28;;;6.74;100.00
11936;BME280;6027;48.576;9.180;2023-03-26T00:36:04;96420.50;;;6.73;100.00
11936;BME280;6027;48.576;9.180;2023-03-26T00:38:30;96436.16;;;6.58;100.00
11936;BME280;6027;48.576;9.180;2023-03-26T00:40:58;96428.63;;;6.47;100.00
11936;BME280;6027;48.576;9.180;2023-03-26T00:43:31;96427.63;;;6.40;100.00
11936;BME280;6027;48.576;9.180;2023-03-26T00:45:57;96415.69;;;6.29;100.00
11936;BME280;6027;48.576;9.180;2023-03-26T00:48:23;96418.31;;;6.21;100.00
11936;BME280;6027;48.576;9.180;2023-03-26T00:50:49;96402.41;;;6.14;100.00
11936;BME280;6027;48.576;9.180;2023-03-26T00:53:16;96399.75;;;6.06;100.00
11936;BME280;6027;48.576;9.180;2023-03-26T00:55:43;96392.69;;;6.07;100.00
11936;BME280;6027;48.576;9.180;2023-03-26T00:58:09;96421.91;;;6.20;100.00
11936;BME280;6027;48.576;9.180;2023-03-26T01:00:55;96390.38;;;6.20;100.00
11936;BME280;6027;48.576;9.180;2023-03-26T01:03:22;96401.06;;;6.18;100.00
11936;BME280;6027;48.576;9.180;2023-03-26T01:05:57;96394.47;;;6.31;100.00
11936;BME280;6027;48.576;9.180;2023-03-26T01:08:39;96383.25;;;6.45;100.00
11936;BME280;6027;48.576;9.180;2023-03-26T01:11:12;96396.78;;;6.34;100.00
11936;BME280;6027;48.576;9.180;2023-03-26T01:13:43;96382.53;;;6.12;100.00
11936;BME280;6027;48.576;9.180;2023-03-26T01:16:51;96362.97;;;6.06;100.00
11936;BME280;6027;48.576;9.180;2023-03-26T01:19:28;96350.00;;;6.05;100.00
11936;BME280;6027;48.576;9.180;2023-03-26T01:21:54;96352.78;;;6.11;100.00
11936;BME280;6027;48.576;9.180;2023-03-26T01:24:20;96344.38;;;6.24;100.00
11936;BME280;6027;48.576;9.180;2023-03-26T01:26:55;96339.66;;;6.11;100.00
11936;BME280;6027;48.576;9.180;2023-03-26T01:32:02;96354.25;;;6.14;100.00
11936;BME280;6027;48.576;9.180;2023-03-26T01:37:20;96335.69;;;6.15;100.00
11936;BME280;6027;48.576;9.180;2023-03-26T01:39:54;96335.19;;;6.20;100.00
11936;BME280;6027;48.576;9.180;2023-03-26T01:42:32;96332.03;;;6.33;100.00
11936;BME280;6027;48.576;9.180;2023-03-26T01:45:09;96321.03;;;6.29;100.00
11936;BME280;6027;48.576;9.180;2023-03-26T01:47:36;96318.56;;;6.28;100.00
11936;BME280;6027;48.576;9.180;2023-03-26T01:50:04;96324.59;;;6.36;100.00
11936;BME280;6027;48.576;9.180;2023-03-26T01:52:29;96305.38;;;6.44;100.00
11936;BME280;6027;48.576;9.180;2023-03-26T01:54:55;96277.81;;;6.32;100.00
11936;BME280;6027;48.576;9.180;2023-03-26T02:05:29;96301.19;;;6.57;100.00
11936;BME280;6027;48.576;9.180;2023-03-26T02:08:33;96278.69;;;6.55;100.00
11936;BME280;6027;48.576;9.180;2023-03-26T02:11:04;96284.25;;;6.60;100.00
11936;BME280;6027;48.576;9.180;2023-03-26T02:13:35;96254.41;;;6.45;100.00
11936;BME280;6027;48.576;9.180;2023-03-26T02:16:03;96271.28;;;6.58;100.00
11936;BME280;6027;48.576;9.180;2023-03-26T02:18:29;96247.59;;;6.58;100.00
11936;BME280;6027;48.576;9.180;2023-03-26T02:21:10;96235.59;;;6.64;100.00
11936;BME280;6027;48.576;9.180;2023-03-26T02:23:37;96241.16;;;6.69;100.00
11936;BME280;6027;48.576;9.180;2023-03-26T02:26:08;96250.84;;;6.69;100.00
11936;BME280;6027;48.576;9.180;2023-03-26T02:28:34;96262.31;;;6.76;100.00
11936;BME280;6027;48.576;9.180;2023-03-26T02:31:00;96248.22;;;6.69;100.00
11936;BME280;6027;48.576;9.180;2023-03-26T02:33:28;96250.97;;;6.75;100.00
11936;BME280;6027;48.576;9.180;2023-03-26T02:35:54;96221.13;;;6.60;100.00
11936;BME280;6027;48.576;9.180;2023-03-26T02:38:25;96227.94;;;6.77;100.00
11936;BME280;6027;48.576;9.180;2023-03-26T02:40:52;96218.88;;;6.80;100.00
11936;BME280;6027;48.576;9.180;2023-03-26T02:43:17;96212.78;;;6.79;100.00
11936;BME280;6027;48.576;9.180;2023-03-26T02:45:43;96195.63;;;6.69;100.00
11936;BME280;6027;48.576;9.180;2023-03-26T02:48:08;96218.88;;;6.80;100.00
11936;BME280;6027;48.576;9.180;2023-03-26T02:50:33;96200.81;;;6.77;100.00
11936;BME280;6027;48.576;9.180;2023-03-26T02:53:01;96196.09;;;6.72;100.00
11936;BME280;6027;48.576;9.180;2023-03-26T02:55:26;96203.78;;;6.74;100.00
11936;BME280;6027;48.576;9.180;2023-03-26T02:57:52;96185.56;;;6.72;100.00
11936;BME280;6027;48.576;9.180;2023-03-26T03:00:17;96180.47;;;6.71;100.00
11936;BME280;6027;48.576;9.180;2023-03-26T03:02:46;96192.53;;;6.88;100.00
11936;BME280;6027;48.576;9.180;2023-03-26T03:05:14;96161.53;;;6.75;100.00
11936;BME280;6027;48.576;9.180;2023-03-26T03:07:42;96161.34;;;6.77;100.00
11936;BME280;6027;48.576;9.180;2023-03-26T03:10:11;96175.63;;;6.82;100.00
11936;BME280;6027;48.576;9.180;2023-03-26T03:12:38;96166.94;;;6.74;100.00
11936;BME280;6027;48.576;9.180;2023-03-26T03:15:05;96138.50;;;6.77;100.00
11936;BME280;6027;48.576;9.180;2023-03-26T03:17:31;96147.31;;;6.84;100.00
11936;BME280;6027;48.576;9.180;2023-03-26T03:19:56;96139.91;;;6.88;100.00
11936;BME280;6027;48.576;9.180;2023-03-26T03:22:21;96139.25;;;6.86;100.00
11936;BME280;6027;48.576;9.180;2023-03-26T03:24:47;96126.28;;;6.84;100.00
11936;BME280;6027;48.576;9.180;2023-03-26T03:27:12;96122.63;;;6.71;100.00
11936;BME280;6027;48.576;9.180;2023-03-26T03:29:37;96144.34;;;6.87;100.00
11936;BME280;6027;48.576;9.180;2023-03-26T03:32:03;96130.53;;;6.85;100.00
11936;BME280;6027;48.576;9.180;2023-03-26T03:34:29;96121.97;;;6.69;100.00
11936;BME280;6027;48.576;9.180;2023-03-26T03:36:54;96127.09;;;6.62;100.00
11936;BME280;6027;48.576;9.180;2023-03-26T03:39:19;96120.97;;;6.70;100.00
11936;BME280;6027;48.576;9.180;2023-03-26T03:41:45;96120.16;;;6.69;100.00
11936;BME280;6027;48.576;9.180;2023-03-26T03:44:10;96104.91;;;6.65;100.00
11936;BME280;6027;48.576;9.180;2023-03-26T03:46:36;96082.69;;;6.44;100.00
11936;BME280;6027;48.576;9.180;2023-03-26T03:49:02;96110.81;;;6.67;100.00
11936;BME280;6027;48.576;9.180;2023-03-26T03:51:27;96111.28;;;6.70;100.00
11936;BME280;6027;48.576;9.180;2023-03-26T03:53:52;96110.09;;;6.73;100.00
11936;BME280;6027;48.576;9.180;2023-03-26T03:56:20;96101.56;;;6.71;100.00
11936;BME280;6027;48.576;9.180;2023-03-26T03:58:48;96112.13;;;6.85;100.00
11936;BME280;6027;48.576;9.180;2023-03-26T04:01:14;96087.94;;;6.67;100.00
11936;BME280;6027;48.576;9.180;2023-03-26T04:03:41;96113.75;;;6.86;100.00
11936;BME280;6027;48.576;9.180;2023-03-26T04:06:11;96099.03;;;6.54;100.00
11936;BME280;6027;48.576;9.180;2023-03-26T04:08:37;96063.94;;;6.47;100.00
11936;BME280;6027;48.576;9.180;2023-03-26T04:11:03;96093.84;;;6.69;100.00
11936;BME280;6027;48.576;9.180;2023-03-26T04:13:29;96082.34;;;6.70;100.00
11936;BME280;6027;48.576;9.180;2023-03-26T04:15:54;96083.97;;;6.71;100.00
11936;BME280;6027;48.576;9.180;2023-03-26T04:18:20;96080.88;;;6.68;100.00
11936;BME280;6027;48.576;9.180;2023-03-26T04:20:46;96075.09;;;6.72;100.00
11936;BME280;6027;48.576;9.180;2023-03-26T04:23:14;96071.00;;;6.70;100.00
11936;BME280;6027;48.576;9.180;2023-03-26T04:25:45;96045.44;;;6.55;100.00
11936;BME280;6027;48.576;9.180;2023-03-26T04:28:20;96053.63;;;6.61;100.00
11936;BME280;6027;48.576;9.180;2023-03-26T04:30:51;96054.31;;;6.40;100.00
11936;BME280;6027;48.576;9.180;2023-03-26T04:33:18;96051.53;;;6.56;100.00
11936;BME280;6027;48.576;9.180;2023-03-26T04:35:46;96051.00;;;6.61;100.00
11936;BME280;6027;48.576;9.180;2023-03-26T04:38:13;96030.16;;;6.59;100.00
11936;BME280;6027;48.576;9.180;2023-03-26T04:40:42;96025.47;;;6.69;100.00
11936;BME280;6027;48.576;9.180;2023-03-26T04:43:15;96015.59;;;6.71;100.00
11936;BME280;6027;48.576;9.180;2023-03-26T04:45:42;95996.94;;;6.58;100.00
11936;BME280;6027;48.576;9.180;2023-03-26T04:48:10;96028.28;;;6.68;100.00
11936;BME280;6027;48.576;9.180;2023-03-26T04:50:43;96009.38;;;6.49;100.00
11936;BME280;6027;48.576;9.180;2023-03-26T04:53:19;96028.81;;;6.63;100.00
11936;BME280;6027;48.576;9.180;2023-03-26T04:55:59;96022.25;;;6.59;100.00
11936;BME280;6027;48.576;9.180;2023-03-26T05:06:29;96011.56;;;6.75;100.00
11936;BME280;6027;48.576;9.180;2023-03-26T05:09:18;95986.84;;;6.70;100.00
11936;BME280;6027;48.576;9.180;2023-03-26T05:11:43;95990.91;;;6.72;100.00
11936;BME280;6027;48.576;9.180;2023-03-26T05:14:08;95988.19;;;6.66;100.00
11936;BME280;6027;48.576;9.180;2023-03-26T05:16:34;95979.34;;;6.58;100.00
11936;BME280;6027;48.576;9.180;2023-03-26T05:19:00;96011.03;;;6.65;100.00
11936;BME280;6027;48.576;9.180;2023-03-26T05:21:25;95998.41;;;6.61;100.00
11936;BME280;6027;48.576;9.180;2023-03-26T05:23:51;95986.91;;;6.62;100.00
11936;BME280;6027;48.576;9.180;2023-03-26T05:26:17;95965.56;;;6.56;100.00
11936;BME280;6027;48.576;9.180;2023-03-26T05:28:42;95959.25;;;6.51;100.00
11936;BME280;6027;48.576;9.180;2023-03-26T05:31:09;95967.59;;;6.69;100.00
11936;BME280;6027;48.576;9.180;2023-03-26T05:33:35;95965.03;;;6.76;100.00
11936;BME280;6027;48.576;9.180;2023-03-26T05:36:02;95953.53;;;6.77;100.00
11936;BME280;6027;48.576;9.180;2023-03-26T05:38:29;95950.00;;;6.84;100.00
11936;BME280;6027;48.576;9.180;2023-03-26T05:40:59;95961.63;;;6.90;100.00
11936;BME280;6027;48.576;9.180;2023-03-26T05:43:25;95934.03;;;6.86;100.00
11936;BME280;6027;48.576;9.180;2023-03-26T05:45:51;95927.31;;;6.83;100.00
11936;BME280;6027;48.576;9.180;2023-03-26T05:48:16;95929.59;;;6.86;100.00
11936;BME280;6027;48.576;9.180;2023-03-26T05:50:43;95927.50;;;6.97;100.00
11936;BME280;6027;48.576;9.180;2023-03-26T05:53:08;95903.66;;;6.83;100.00
11936;BME280;6027;48.576;9.180;2023-03-26T05:55:33;95917.91;;;6.89;100.00
11936;BME280;6027;48.576;9.180;2023-03-26T05:57:59;95892.75;;;6.86;100.00
11936;BME280;6027;48.576;9.180;2023-03-26T06:00:25;95899.28;;;6.90;100.00
11936;BME280;6027;48.576;9.180;2023-03-26T06:02:51;95901.19;;;6.97;100.00
11936;BME280;6027;48.576;9.180;2023-03-26T06:05:19;95919.78;;;7.10;100.00
11936;BME280;6027;48.576;9.180;2023-03-26T06:07:44;95915.50;;;7.09;100.00
11936;BME280;6027;48.576;9.180;2023-03-26T06:10:10;95866.28;;;6.88;100.00
11936;BME280;6027;48.576;9.180;2023-03-26T06:12:36;95885.63;;;7.16;100.00
11936;BME280;6027;48.576;9.180;2023-03-26T06:15:01;95894.53;;;7.15;100.00
11936;BME280;6027;48.576;9.180;2023-03-26T06:17:27;95885.66;;;7.02;100.00
11936;BME280;6027;48.576;9.180;2023-03-26T06:19:52;95899.63;;;7.02;100.00
11936;BME280;6027;48.576;9.180;2023-03-26T06:22:18;95886.13;;;7.05;100.00
11936;BME280;6027;48.576;9.180;2023-03-26T06:24:44;95858.44;;;6.94;100.00
11936;BME280;6027;48.576;9.180;2023-03-26T06:27:09;95876.03;;;6.94;100.00
11936;BME280;6027;48.576;9.180;2023-03-26T06:29:35;95845.03;;;6.75;100.00
11936;BME280;6027;48.576;9.180;2023-03-26T06:32:00;95867.28;;;6.87;100.00
11936;BME280;6027;48.576;9.180;2023-03-26T06:34:26;95842.88;;;6.78;100.00
11936;BME280;6027;48.576;9.180;2023-03-26T06:36:52;95864.78;;;7.00;100.00
11936;BME280;6027;48.576;9.180;2023-03-26T06:39:18;95871.66;;;7.16;100.00
11936;BME280;6027;48.576;9.180;2023-03-26T06:41:44;95849.44;;;7.04;100.00
11936;BME280;6027;48.576;9.180;2023-03-26T06:44:09;95821.22;;;6.98;100.00
11936;BME280;6027;48.576;9.180;2023-03-26T06:46:35;95839.81;;;7.11;100.00
11936;BME280;6027;48.576;9.180;2023-03-26T06:49:01;95847.13;;;7.15;100.00
11936;BME280;6027;48.576;9.180;2023-03-26T06:51:27;95834.34;;;7.12;100.00
11936;BME280;6027;48.576;9.180;2023-03-26T06:53:52;95816.88;;;7.05;100.00
11936;BME280;6027;48.576;9.180;2023-03-26T06:56:17;95814.75;;;7.15;100.00
11936;BME280;6027;48.576;9.180;2023-03-26T06:58:43;95823.16;;;7.25;100.00
11936;BME280;6027;48.576;9.180;2023-03-26T07:01:15;95808.84;;;7.13;100.00
11936;BME280;6027;48.576;9.180;2023-03-26T07:03:41;95790.63;;;7.11;100.00
11936;BME280;6027;48.576;9.180;2023-03-26T07:06:06;95802.84;;;7.19;100.00
11936;BME280;6027;48.576;9.180;2023-03-26T07:08:32;95795.09;;;7.11;100.00
11936;BME280;6027;48.576;9.180;2023-03-26T07:10:57;95789.69;;;7.19;100.00
11936;BME280;6027;48.576;9.180;2023-03-26T07:13:23;95799.66;;;7.23;100.00
11936;BME280;6027;48.576;9.180;2023-03-26T07:15:48;95799.22;;;7.20;100.00
11936;BME280;6027;48.576;9.180;2023-03-26T07:18:13;95785.16;;;7.13;100.00
11936;BME280;6027;48.576;9.180;2023-03-26T07:20:39;95793.19;;;7.26;100.00
11936;BME280;6027;48.576;9.180;2023-03-26T07:23:06;95767.63;;;7.20;100.00
11936;BME280;6027;48.576;9.180;2023-03-26T07:25:32;95768.88;;;7.24;100.00
11936;BME280;6027;48.576;9.180;2023-03-26T07:36:11;95740.94;;;7.02;100.00
11936;BME280;6027;48.576;9.180;2023-03-26T07:38:52;95751.16;;;7.11;100.00
11936;BME280;6027;48.576;9.180;2023-03-26T07:41:41;95733.91;;;7.09;100.00
11936;BME280;6027;48.576;9.180;2023-03-26T07:44:35;95717.25;;;7.02;100.00
11936;BME280;6027;48.576;9.180;2023-03-26T07:47:20;95732.66;;;7.05;100.00
11936;BME280;6027;48.576;9.180;2023-03-26T07:49:52;95701.09;;;7.05;100.00
11936;BME280;6027;48.576;9.180;2023-03-26T07:52:18;95707.34;;;7.04;100.00
11936;BME280;6027;48.576;9.180;2023-03-26T07:54:43;95715.16;;;6.97;100.00
11936;BME280;6027;48.576;9.180;2023-03-26T08:03:42;95721.41;;;7.11;100.00
11936;BME280;6027;48.576;9.180;2023-03-26T08:06:19;95708.22;;;7.11;100.00
11936;BME280;6027;48.576;9.180;2023-03-26T08:11:56;95700.91;;;7.34;100.00
11936;BME280;6027;48.576;9.180;2023-03-26T08:17:09;95700.59;;;7.44;100.00
11936;BME280;6027;48.576;9.180;2023-03-26T08:22:34;95702.66;;;7.48;100.00
11936;BME280;6027;48.576;9.180;2023-03-26T08:25:34;95710.41;;;7.56;100.00
11936;BME280;6027;48.576;9.180;2023-03-26T08:30:48;95690.91;;;7.51;100.00
11936;BME280;6027;48.576;9.180;2023-03-26T08:33:18;95681.91;;;7.39;100.00
11936;BME280;6027;48.576;9.180;2023-03-26T08:35:45;95669.31;;;7.34;100.00
11936;BME280;6027;48.576;9.180;2023-03-26T08:38:13;95684.91;;;7.29;100.00
11936;BME280;6027;48.576;9.180;2023-03-26T08:46:01;95687.25;;;7.45;100.00
11936;BME280;6027;48.576;9.180;2023-03-26T08:56:18;95727.50;;;7.39;100.00
11936;BME280;6027;48.576;9.180;2023-03-26T08:58:50;95690.56;;;7.33;100.00
11936;BME280;6027;48.576;9.180;2023-03-26T09:26:43;95707.78;;;7.28;100.00
11936;BME280;6027;48.576;9.180;2023-03-26T09:40:15;95691.16;;;7.56;100.00
11936;BME280;6027;48.576;9.180;2023-03-26T09:52:15;95689.84;;;8.08;100.00
11936;BME280;6027;48.576;9.180;2023-03-26T10:02:44;95683.94;;;8.40;100.00
11936;BME280;6027;48.576;9.180;2023-03-26T10:11:26;95676.22;;;8.39;100.00
11936;BME280;6027;48.576;9.180;2023-03-26T10:16:50;95672.38;;;8.41;100.00
11936;BME280;6027;48.576;9.180;2023-03-26T10:22:24;95669.69;;;8.35;100.00
11936;BME280;6027;48.576;9.180;2023-03-26T10:28:19;95671.66;;;8.19;100.00
11936;BME280;6027;48.576;9.180;2023-03-26T10:33:36;95659.09;;;8.21;100.00
11936;BME280;6027;48.576;9.180;2023-03-26T10:39:20;95658.25;;;8.75;100.00
11936;BME280;6027;48.576;9.180;2023-03-26T10:55:37;95667.94;;;9.93;100.00
11936;BME280;6027;48.576;9.180;2023-03-26T10:58:17;95665.91;;;9.89;100.00
11936;BME280;6027;48.576;9.180;2023-03-26T11:01:09;95678.88;;;10.03;100.00
11936;BME280;6027;48.576;9.180;2023-03-26T11:08:53;95690.38;;;9.58;100.00
11936;BME280;6027;48.576;9.180;2023-03-26T11:14:18;95672.88;;;9.63;100.00
11936;BME280;6027;48.576;9.180;2023-03-26T11:17:10;95688.03;;;10.14;100.00
11936;BME280;6027;48.576;9.180;2023-03-26T11:19:55;95694.75;;;10.17;100.00
11936;BME280;6027;48.576;9.180;2023-03-26T11:30:30;95679.91;;;10.60;100.00
11936;BME280;6027;48.576;9.180;2023-03-26T11:33:01;95662.56;;;10.71;100.00
11936;BME280;6027;48.576;9.180;2023-03-26T11:35:36;95667.94;;;10.58;100.00
11936;BME280;6027;48.576;9.180;2023-03-26T11:38:27;95666.44;;;10.68;100.00
11936;BME280;6027;48.576;9.180;2023-03-26T11:40:58;95669.38;;;10.54;100.00
11936;BME280;6027;48.576;9.180;2023-03-26T11:43:30;95657.94;;;10.60;100.00
11936;BME280;6027;48.576;9.180;2023-03-26T11:45:58;95656.06;;;10.67;100.00
11936;BME280;6027;48.576;9.180;2023-03-26T11:48:29;95655.19;;;10.80;100.00
11936;BME280;6027;48.576;9.180;2023-03-26T11:51:06;95645.53;;;10.92;97.17
11936;BME280;6027;48.576;9.180;2023-03-26T11:53:34;95653.16;;;11.06;99.55
11936;BME280;6027;48.576;9.180;2023-03-26T11:56:13;95657.69;;;10.99;99.82
11936;BME280;6027;48.576;9.180;2023-03-26T12:01:22;95655.81;;;11.06;82.89
11936;BME280;6027;48.576;9.180;2023-03-26T12:04:08;95648.06;;;11.12;90.42
11936;BME280;6027;48.576;9.180;2023-03-26T12:06:38;95653.34;;;11.12;88.85
11936;BME280;6027;48.576;9.180;2023-03-26T12:09:15;95649.00;;;11.17;87.47
11936;BME280;6027;48.576;9.180;2023-03-26T12:11:41;95646.06;;;11.32;97.03
11936;BME280;6027;48.576;9.180;2023-03-26T12:14:16;95648.66;;;11.57;93.52
11936;BME280;6027;48.576;9.180;2023-03-26T12:17:05;95655.84;;;11.74;91.08
11936;BME280;6027;48.576;9.180;2023-03-26T12:19:42;95651.28;;;11.38;90.20
11936;BME280;6027;48.576;9.180;2023-03-26T12:22:37;95656.00;;;11.12;86.27
11936;BME280;6027;48.576;9.180;2023-03-26T12:25:36;95649.03;;;10.86;91.78
11936;BME280;6027;48.576;9.180;2023-03-26T12:32:57;95650.34;;;10.70;75.31
11936;BME280;6027;48.576;9.180;2023-03-26T12:35:29;95631.72;;;10.83;71.21
11936;BME280;6027;48.576;9.180;2023-03-26T12:38:22;95624.47;;;11.28;73.45
11936;BME280;6027;48.576;9.180;2023-03-26T12:41:03;95627.72;;;11.73;78.51
11936;BME280;6027;48.576;9.180;2023-03-26T12:43:55;95611.53;;;12.00;65.76
11936;BME280;6027;48.576;9.180;2023-03-26T12:48:57;95608.25;;;12.34;59.55
11936;BME280;6027;48.576;9.180;2023-03-26T12:56:42;95602.69;;;12.24;59.30
11936;BME280;6027;48.576;9.180;2023-03-26T13:02:15;95585.06;;;12.60;59.08
11936;BME280;6027;48.576;9.180;2023-03-26T13:04:57;95577.38;;;12.70;53.66
11936;BME280;6027;48.576;9.180;2023-03-26T13:13:55;95566.25;;;12.73;54.11
11936;BME280;6027;48.576;9.180;2023-03-26T13:16:08;95561.66;;;12.80;53.89
11936;BME280;6027;48.576;9.180;2023-03-26T13:24:22;95547.03;;;13.12;51.68
11936;BME280;6027;48.576;9.180;2023-03-26T13:37:54;95547.22;;;12.34;54.16
11936;BME280;6027;48.576;9.180;2023-03-26T13:40:29;95545.06;;;12.13;54.61
11936;BME280;6027;48.576;9.180;2023-03-26T13:43:15;95551.31;;;12.19;60.55
11936;BME280;6027;48.576;9.180;2023-03-26T13:46:56;95559.31;;;12.00;61.11
11936;BME280;6027;48.576;9.180;2023-03-26T13:51:28;95560.38;;;11.38;69.13
11936;BME280;6027;48.576;9.180;2023-03-26T13:54:11;95547.72;;;11.58;72.84
11936;BME280;6027;48.576;9.180;2023-03-26T13:56:42;95541.88;;;11.93;71.71
11936;BME280;6027;48.576;9.180;2023-03-26T13:59:15;95533.28;;;12.09;69.72
11936;BME280;6027;48.576;9.180;2023-03-26T14:01:49;95521.72;;;12.03;67.95
11936;BME280;6027;48.576;9.180;2023-03-26T14:04:24;95516.94;;;11.94;66.03
11936;BME280;6027;48.576;9.180;2023-03-26T14:06:56;95511.88;;;11.92;66.92
11936;BME280;6027;48.576;9.180;2023-03-26T14:09:46;95527.28;;;11.84;68.21
11936;BME280;6027;48.576;9.180;2023-03-26T14:12:19;95523.81;;;11.65;66.36
11936;BME280;6027;48.576;9.180;2023-03-26T14:15:05;95533.31;;;11.54;63.66
11936;BME280;6027;48.576;9.180;2023-03-26T14:17:42;95528.25;;;11.53;65.18
11936;BME280;6027;48.576;9.180;2023-03-26T14:32:02;95516.34;;;11.19;63.24
11936;BME280;6027;48.576;9.180;2023-03-26T14:34:04;95525.91;;;11.20;63.45
11936;BME280;6027;48.576;9.180;2023-03-26T14:36:51;95522.66;;;11.18;65.21
11936;BME280;6027;48.576;9.180;2023-03-26T14:39:52;95549.09;;;11.24;65.84
11936;BME280;6027;48.576;9.180;2023-03-26T14:42:40;95542.16;;;11.05;71.02
11936;BME280;6027;48.576;9.180;2023-03-26T14:47:51;95543.09;;;10.61;78.72
11936;BME280;6027;48.576;9.180;2023-03-26T14:53:05;95551.75;;;10.05;87.87
11936;BME280;6027;48.576;9.180;2023-03-26T14:55:39;95551.63;;;9.93;88.62
11936;BME280;6027;48.576;9.180;2023-03-26T15:01:25;95560.84;;;9.78;90.32
11936;BME280;6027;48.576;9.180;2023-03-26T15:04:55;95572.03;;;9.73;91.01
11936;BME280;6027;48.576;9.180;2023-03-26T15:18:23;95568.44;;;9.61;86.67
11936;BME280;6027;48.576;9.180;2023-03-26T15:32:05;95588.03;;;9.00;94.52
11936;BME280;6027;48.576;9.180;2023-03-26T15:58:55;95617.03;;;7.59;100.00
11936;BME280;6027;48.576;9.180;2023-03-26T16:06:59;95615.97;;;7.53;100.00
11936;BME280;6027;48.576;9.180;2023-03-26T16:14:46;95636.19;;;7.12;100.00
11936;BME280;6027;48.576;9.180;2023-03-26T16:17:21;95645.00;;;7.04;100.00
11936;BME280;6027;48.576;9.180;2023-03-26T16:19:57;95647.25;;;7.07;100.00
11936;BME280;6027;48.576;9.180;2023-03-26T16:25:20;95653.91;;;7.03;100.00
11936;BME280;6027;48.576;9.180;2023-03-26T16:28:07;95653.34;;;7.08;100.00
11936;BME280;6027;48.576;9.180;2023-03-26T16:30:41;95645.81;;;7.05;100.00
11936;BME280;6027;48.576;9.180;2023-03-26T16:33:19;95657.97;;;7.06;100.00
11936;BME280;6027;48.576;9.180;2023-03-26T16:38:16;95669.41;;;6.91;100.00
11936;BME280;6027;48.576;9.180;2023-03-26T16:40:53;95667.13;;;6.67;100.00
11936;BME280;6027;48.576;9.180;2023-03-26T16:48:34;95678.91;;;6.50;100.00
11936;BME280;6027;48.576;9.180;2023-03-26T16:51:10;95683.97;;;6.51;100.00
11936;BME280;6027;48.576;9.180;2023-03-26T16:56:49;95671.38;;;6.47;100.00
11936;BME280;6027;48.576;9.180;2023-03-26T16:59:22;95670.66;;;6.53;100.00
11936;BME280;6027;48.576;9.180;2023-03-26T17:07:58;95677.00;;;6.44;100.00
11936;BME280;6027;48.576;9.180;2023-03-26T17:10:40;95676.91;;;6.37;100.00
11936;BME280;6027;48.576;9.180;2023-03-26T17:13:21;95675.00;;;6.46;100.00
11936;BME280;6027;48.576;9.180;2023-03-26T17:16:03;95688.34;;;6.44;100.00
11936;BME280;6027;48.576;9.180;2023-03-26T17:18:41;95683.44;;;6.41;100.00
11936;BME280;6027;48.576;9.180;2023-03-26T17:23:46;95694.97;;;6.40;100.00
11936;BME280;6027;48.576;9.180;2023-03-26T17:26:20;95687.84;;;6.34;100.00
11936;BME280;6027;48.576;9.180;2023-03-26T17:29:11;95682.13;;;6.31;100.00
11936;BME280;6027;48.576;9.180;2023-03-26T17:42:26;95692.28;;;6.19;100.00
11936;BME280;6027;48.576;9.180;2023-03-26T17:47:27;95690.41;;;6.13;100.00
11936;BME280;6027;48.576;9.180;2023-03-26T17:50:02;95692.41;;;6.11;100.00
11936;BME280;6027;48.576;9.180;2023-03-26T17:52:44;95677.81;;;6.08;100.00
11936;BME280;6027;48.576;9.180;2023-03-26T17:55:19;95684.75;;;6.16;100.00
11936;BME280;6027;48.576;9.180;2023-03-26T17:58:06;95673.25;;;6.17;100.00
11936;BME280;6027;48.576;9.180;2023-03-26T18:00:42;95672.25;;;6.18;100.00
11936;BME280;6027;48.576;9.180;2023-03-26T18:03:30;95671.44;;;6.17;100.00
11936;BME280;6027;48.576;9.180;2023-03-26T18:09:36;95681.06;;;6.10;100.00
11936;BME280;6027;48.576;9.180;2023-03-26T18:18:18;95681.44;;;6.07;100.00
11936;BME280;6027;48.576;9.180;2023-03-26T18:20:49;95689.69;;;6.04;100.00
11936;BME280;6027;48.576;9.180;2023-03-26T18:23:34;95688.69;;;6.05;100.00
11936;BME280;6027;48.576;9.180;2023-03-26T18:26:11;95680.34;;;6.02;100.00
11936;BME280;6027;48.576;9.180;2023-03-26T18:31:48;95691.66;;;6.02;100.00
11936;BME280;6027;48.576;9.180;2023-03-26T18:34:17;95702.00;;;6.04;100.00
11936;BME280;6027;48.576;9.180;2023-03-26T18:39:54;95693.31;;;6.03;100.00
11936;BME280;6027;48.576;9.180;2023-03-26T18:42:21;95700.19;;;6.04;100.00
11936;BME280;6027;48.576;9.180;2023-03-26T18:44:48;95703.81;;;6.03;100.00
11936;BME280;6027;48.576;9.180;2023-03-26T18:47:18;95706.44;;;6.03;100.00
11936;BME280;6027;48.576;9.180;2023-03-26T18:49:46;95696.47;;;5.99;100.00
11936;BME280;6027;48.576;9.180;2023-03-26T18:52:17;95699.47;;;5.96;100.00
11936;BME280;6027;48.576;9.180;2023-03-26T18:54:46;95696.41;;;5.92;100.00
11936;BME280;6027;48.576;9.180;2023-03-26T18:57:27;95696.75;;;5.89;100.00
11936;BME280;6027;48.576;9.180;2023-03-26T18:59:56;95691.16;;;5.92;100.00
11936;BME280;6027;48.576;9.180;2023-03-26T19:02:23;95697.03;;;5.94;100.00
11936;BME280;6027;48.576;9.180;2023-03-26T19:04:49;95690.16;;;5.93;100.00
11936;BME280;6027;48.576;9.180;2023-03-26T19:07:24;95707.78;;;5.99;100.00
11936;BME280;6027;48.576;9.180;2023-03-26T19:09:50;95716.50;;;6.00;100.00
11936;BME280;6027;48.576;9.180;2023-03-26T19:12:30;95710.00;;;5.96;100.00